Time;durP1;ratioP1;P1;durP2;ratioP2;P2;SDS_P1;SDS_P2;PMS_P1;PMS_P2;Temp;Humidity;BMP_temperature;BMP_pressure;BME280_temperature;BME280_humidity;BME280_pressure;Samples;Min_cycle;Max_cycle;Signal;HPM_P1;HPM_P2
2022/09/25 00:00:20;;;;;;;8.20;4.80;;;;;;;13.45;100.00;99859.78;4950101;29;20037;-60
2022/09/25 00:02:45;;;;;;;8.50;5.28;;;;;;;13.41;100.00;99854.00;4944105;29;20111;-61
2022/09/25 00:05:11;;;;;;;13.15;5.82;;;;;;;13.38;100.00;99859.75;4941717;28;20063;-60
2022/09/25 00:07:36;;;;;;;11.73;5.72;;;;;;;13.42;100.00;99861.00;4943097;29;20486;-60
2022/09/25 00:10:02;;;;;;;10.68;5.70;;;;;;;13.40;100.00;99851.53;4944707;28;20050;-60
2022/09/25 00:12:28;;;;;;;12.18;6.15;;;;;;;13.41;100.00;99862.03;4944116;28;20035;-60
2022/09/25 00:14:54;;;;;;;11.80;6.22;;;;;;;13.42;100.00;99858.31;4942929;28;20065;-60
2022/09/25 00:17:20;;;;;;;11.90;6.30;;;;;;;13.35;100.00;99851.28;4945622;29;20042;-60
2022/09/25 00:19:51;;;;;;;16.63;7.50;;;;;;;13.38;100.00;99851.72;4943617;29;20035;-61
2022/09/25 00:22:17;;;;;;;11.80;6.03;;;;;;;13.38;100.00;99849.06;4945110;28;20070;-60
2022/09/25 00:24:44;;;;;;;12.95;5.95;;;;;;;13.41;100.00;99847.81;4943490;29;20047;-60
2022/09/25 00:27:09;;;;;;;13.40;6.72;;;;;;;13.41;100.00;99845.16;4944040;28;20063;-61
2022/09/25 00:29:36;;;;;;;14.02;6.80;;;;;;;13.40;100.00;99846.19;4943363;29;20039;-59
2022/09/25 00:32:03;;;;;;;14.93;6.95;;;;;;;13.41;100.00;99842.47;4941759;29;20395;-59
2022/09/25 00:34:29;;;;;;;17.25;6.90;;;;;;;13.42;100.00;99842.25;4943885;29;20542;-60
2022/09/25 00:36:54;;;;;;;15.02;7.28;;;;;;;13.41;100.00;99839.78;4942838;29;20134;-58
2022/09/25 00:39:20;;;;;;;10.48;6.28;;;;;;;13.42;100.00;99839.59;4950979;28;20094;-59
2022/09/25 00:41:45;;;;;;;15.82;7.03;;;;;;;13.35;100.00;99835.25;4953621;29;20580;-60
2022/09/25 00:44:45;;;;;;;13.65;6.32;;;;;;;13.30;100.00;99842.03;4953573;29;20142;-61
2022/09/25 00:47:14;;;;;;;11.32;6.07;;;;;;;13.28;100.00;99836.03;4953612;29;20527;-59
2022/09/25 00:49:40;;;;;;;14.63;5.85;;;;;;;13.28;100.00;99830.69;4953607;29;20035;-59
2022/09/25 00:52:09;;;;;;;15.60;7.72;;;;;;;13.25;100.00;99828.44;4953266;28;20047;-59
2022/09/25 00:54:46;;;;;;;16.27;7.15;;;;;;;13.28;100.00;99827.19;4953402;28;20094;-59
2022/09/25 00:57:17;;;;;;;13.85;6.63;;;;;;;13.17;100.00;99823.25;4953369;29;20042;-61
2022/09/25 00:59:51;;;;;;;14.20;6.20;;;;;;;13.29;100.00;99818.97;4952551;28;20050;-58
2022/09/25 01:02:25;;;;;;;11.10;5.95;;;;;;;13.26;100.00;99814.03;4953219;29;20045;-60
2022/09/25 01:04:51;;;;;;;17.42;7.65;;;;;;;13.25;100.00;99824.94;4953530;29;20039;-60
2022/09/25 01:07:17;;;;;;;13.80;6.72;;;;;;;13.19;100.00;99820.38;4953372;28;20398;-61
2022/09/25 01:09:45;;;;;;;15.90;6.72;;;;;;;13.13;100.00;99816.63;4953367;28;20043;-60
2022/09/25 01:12:10;;;;;;;12.50;6.53;;;;;;;13.07;100.00;99820.09;4953122;29;20122;-58
2022/09/25 01:14:38;;;;;;;17.13;7.30;;;;;;;13.08;100.00;99821.75;4953140;29;20130;-62
2022/09/25 01:17:20;;;;;;;14.63;6.72;;;;;;;13.08;100.00;99827.09;4954922;28;20039;-60
2022/09/25 01:20:13;;;;;;;15.45;6.53;;;;;;;13.08;100.00;99826.28;4957219;29;20042;-61
2022/09/25 01:23:16;;;;;;;14.52;6.70;;;;;;;13.06;100.00;99825.66;4957383;28;20428;-60
2022/09/25 01:26:10;;;;;;;13.02;7.15;;;;;;;13.01;100.00;99827.06;4957116;28;20039;-60
2022/09/25 01:28:56;;;;;;;12.90;6.95;;;;;;;13.01;100.00;99826.25;4955756;29;20042;-60
2022/09/25 01:31:40;;;;;;;13.15;6.75;;;;;;;13.01;100.00;99828.91;4956681;29;20076;-59
2022/09/25 01:34:21;;;;;;;18.48;8.23;;;;;;;12.97;100.00;99831.16;4956990;29;20039;-61
2022/09/25 01:37:08;;;;;;;14.45;6.88;;;;;;;13.00;100.00;99824.59;4957003;28;20186;-61
2022/09/25 01:39:45;;;;;;;17.52;6.90;;;;;;;12.95;100.00;99822.50;4949682;29;20063;-60
2022/09/25 01:42:20;;;;;;;12.80;6.87;;;;;;;12.93;100.00;99829.09;4956729;28;20137;-60
2022/09/25 01:44:53;;;;;;;13.77;6.25;;;;;;;12.94;100.00;99826.22;4956718;28;20398;-60
2022/09/25 01:47:25;;;;;;;16.05;8.23;;;;;;;12.88;100.00;99827.00;4956611;28;20517;-60
2022/09/25 01:49:56;;;;;;;19.52;9.40;;;;;;;12.91;100.00;99825.78;4956590;28;20406;-60
2022/09/25 01:52:27;;;;;;;15.05;7.95;;;;;;;12.91;100.00;99825.78;4956520;28;20098;-59
2022/09/25 01:54:58;;;;;;;25.10;7.97;;;;;;;12.91;100.00;99826.63;4956545;29;20651;-60
2022/09/25 01:57:35;;;;;;;14.77;7.28;;;;;;;12.92;100.00;99827.44;4956637;28;20039;-60
2022/09/25 02:00:17;;;;;;;21.40;8.52;;;;;;;12.91;100.00;99818.63;4956499;29;20450;-61
2022/09/25 02:02:54;;;;;;;19.58;8.00;;;;;;;12.94;100.00;99820.88;4956664;28;20117;-60
2022/09/25 02:05:30;;;;;;;15.50;7.35;;;;;;;12.95;100.00;99811.81;4956277;28;20036;-60
2022/09/25 02:08:07;;;;;;;15.52;7.63;;;;;;;12.94;100.00;99820.03;4956297;28;20031;-59
2022/09/25 02:10:38;;;;;;;17.65;8.07;;;;;;;12.97;100.00;99820.47;4954847;29;20051;-60
2022/09/25 02:13:13;;;;;;;15.25;8.05;;;;;;;12.96;100.00;99815.31;4956451;29;20039;-61
2022/09/25 02:15:44;;;;;;;20.25;8.20;;;;;;;12.95;100.00;99814.50;4954464;29;20058;-57
2022/09/25 02:21:11;;;;;;;13.95;7.63;;;;;;;13.01;100.00;99804.84;4955674;29;20039;-58
2022/09/25 02:23:48;;;;;;;18.10;7.53;;;;;;;13.02;100.00;99806.50;4955938;29;20126;-58
2022/09/25 02:26:24;;;;;;;18.40;7.28;;;;;;;13.03;100.00;99819.66;4955690;29;20035;-59
2022/09/25 02:28:52;;;;;;;16.30;7.57;;;;;;;13.03;100.00;99819.66;4955549;28;20035;-59
2022/09/25 02:31:20;;;;;;;;;;;;;;;13.04;100.00;99810.66;4954634;29;20122;-61
2022/09/25 02:33:45;;;;;;;19.90;6.97;;;;;;;13.07;100.00;99814.75;4955673;28;19928;-60
2022/09/25 02:36:19;;;;;;;15.93;7.38;;;;;;;13.09;100.00;99814.56;4955551;29;20058;-59
2022/09/25 02:38:47;;;;;;;18.05;7.82;;;;;;;13.08;100.00;99813.72;4955501;28;20031;-57
2022/09/25 02:41:29;;;;;;;12.57;7.10;;;;;;;13.10;100.00;99810.84;4955233;28;20039;-57
2022/09/25 02:44:09;;;;;;;12.20;5.88;;;;;;;13.10;100.00;99811.66;4955728;29;20430;-58
2022/09/25 02:46:52;;;;;;;16.20;7.15;;;;;;;13.11;100.00;99807.19;4955804;29;20094;-62
2022/09/25 02:49:30;;;;;;;16.48;7.97;;;;;;;13.14;100.00;99817.44;4955270;29;20035;-61
2022/09/25 02:52:09;;;;;;;14.00;6.78;;;;;;;13.16;100.00;99807.38;4955018;28;20039;-61
2022/09/25 02:54:50;;;;;;;19.05;6.95;;;;;;;13.17;100.00;99804.53;4955200;29;20130;-62
2022/09/25 02:57:38;;;;;;;16.42;7.32;;;;;;;13.15;100.00;99806.56;4955219;28;20058;-61
2022/09/25 03:00:06;;;;;;;17.75;8.32;;;;;;;13.17;100.00;99798.31;4955023;28;20039;-59
2022/09/25 03:02:36;;;;;;;19.63;8.80;;;;;;;13.13;100.00;99803.25;4955001;29;20038;-61
2022/09/25 03:05:04;;;;;;;15.73;7.18;;;;;;;13.15;100.00;99803.06;4955165;28;20035;-62
2022/09/25 03:08:36;;;;;;;19.15;8.05;;;;;;;13.10;100.00;99803.66;4954405;29;20023;-61
2022/09/25 03:10:17;;;;;;;17.50;8.23;;;;;;;13.12;100.00;99804.28;4954640;29;20126;-62
2022/09/25 03:12:43;;;;;;;15.60;7.83;;;;;;;13.16;100.00;99802.03;4954926;29;20023;-62
2022/09/25 03:15:10;;;;;;;19.20;8.23;;;;;;;13.14;100.00;99801.41;4953458;29;20521;-60
2022/09/25 03:17:40;;;;;;;17.90;8.57;;;;;;;13.12;100.00;99798.94;4953669;28;20129;-62
2022/09/25 03:20:08;;;;;;;17.83;7.88;;;;;;;13.17;100.00;99799.19;4954744;28;20055;-62
2022/09/25 03:22:35;;;;;;;18.58;9.00;;;;;;;13.16;100.00;99802.84;4954737;28;20035;-62
2022/09/25 03:25:00;;;;;;;20.48;9.27;;;;;;;13.16;100.00;99794.00;4954649;29;20035;-62
2022/09/25 03:27:27;;;;;;;18.20;8.15;;;;;;;13.11;100.00;99783.94;4954527;29;20402;-61
2022/09/25 03:29:54;;;;;;;23.02;9.73;;;;;;;13.17;100.00;99795.66;4954542;28;20483;-62
2022/09/25 03:32:20;;;;;;;20.10;9.27;;;;;;;13.17;100.00;99798.31;4954426;28;20109;-62
2022/09/25 03:34:46;;;;;;;19.33;9.80;;;;;;;13.16;100.00;99800.19;4954496;29;20039;-62
2022/09/25 03:37:11;;;;;;;20.83;8.40;;;;;;;13.17;100.00;99796.50;4954496;28;20058;-60
2022/09/25 03:39:36;;;;;;;21.20;9.02;;;;;;;13.15;100.00;99795.84;4952659;28;20046;-60
2022/09/25 03:42:03;;;;;;;24.02;9.65;;;;;;;13.18;100.00;99798.16;4952794;29;20043;-60
2022/09/25 03:44:28;;;;;;;16.35;7.65;;;;;;;13.14;100.00;99801.41;4954512;28;20383;-62
2022/09/25 03:46:53;;;;;;;24.90;8.95;;;;;;;13.14;100.00;99794.22;4954335;29;20058;-62
2022/09/25 03:49:19;;;;;;;22.20;9.07;;;;;;;13.09;100.00;99796.66;4937004;29;20061;-62
2022/09/25 03:51:44;;;;;;;19.63;9.68;;;;;;;13.08;100.00;99797.69;4953969;28;20516;-61
2022/09/25 03:54:09;;;;;;;18.52;9.63;;;;;;;13.07;100.00;99797.91;4954017;28;20035;-61
2022/09/25 03:56:35;;;;;;;26.98;10.63;;;;;;;13.01;100.00;99789.63;4954151;28;20115;-61
2022/09/25 03:59:00;;;;;;;22.45;10.05;;;;;;;13.04;100.00;99799.94;4954203;28;20118;-61
2022/09/25 04:01:27;;;;;;;23.33;11.15;;;;;;;13.05;100.00;99795.44;4953694;29;20079;-62
2022/09/25 04:03:53;;;;;;;20.80;9.38;;;;;;;13.06;100.00;99806.94;4954122;28;20074;-61
2022/09/25 04:06:22;;;;;;;23.92;9.25;;;;;;;13.06;100.00;99801.59;4954026;28;20043;-61
2022/09/25 04:08:48;;;;;;;21.25;8.95;;;;;;;13.03;100.00;99798.28;4953827;28;20043;-62
2022/09/25 04:11:16;;;;;;;19.90;9.27;;;;;;;13.04;100.00;99796.44;4953560;28;20495;-62
2022/09/25 04:13:43;;;;;;;18.02;8.60;;;;;;;13.04;100.00;99799.13;4953890;29;20040;-62
2022/09/25 04:16:10;;;;;;;26.27;9.10;;;;;;;13.00;100.00;99795.19;4954168;28;20618;-62
2022/09/25 04:18:36;;;;;;;18.50;8.43;;;;;;;12.99;100.00;99798.91;4953853;28;20050;-62
2022/09/25 04:21:07;;;;;;;22.00;8.80;;;;;;;12.97;100.00;99793.72;4953462;29;20454;-62
2022/09/25 04:23:33;;;;;;;18.77;9.35;;;;;;;12.98;100.00;99791.91;4952627;28;20054;-62
2022/09/25 04:25:59;;;;;;;16.35;8.65;;;;;;;12.95;100.00;99790.44;4953553;28;20103;-62
2022/09/25 04:28:25;;;;;;;22.48;8.60;;;;;;;12.96;100.00;99794.75;4953676;28;20039;-62
2022/09/25 04:30:51;;;;;;;18.58;9.07;;;;;;;12.93;100.00;99797.84;4953403;28;20055;-62
2022/09/25 04:36:01;;;;;;;22.85;9.27;;;;;;;12.89;100.00;99801.09;4953557;28;20059;-61
2022/09/25 04:38:27;;;;;;;22.38;9.95;;;;;;;12.91;100.00;99799.91;4953494;28;20043;-62
2022/09/25 04:40:52;;;;;;;21.10;9.20;;;;;;;12.87;100.00;99797.81;4953094;29;20058;-61
2022/09/25 04:43:18;;;;;;;21.13;8.90;;;;;;;12.88;100.00;99800.28;4953405;28;20039;-61
2022/09/25 04:45:45;;;;;;;26.75;10.60;;;;;;;12.84;100.00;99790.16;4953324;29;20043;-60
2022/09/25 04:48:11;;;;;;;;;;;;;;;12.90;100.00;99803.56;4953798;28;20039;-61
2022/09/25 04:50:36;;;;;;;22.95;9.82;;;;;;;12.86;100.00;99806.84;4952654;28;19919;-61
2022/09/25 04:53:02;;;;;;;22.98;10.02;;;;;;;12.87;100.00;99803.97;4952947;29;20047;-62
2022/09/25 04:55:28;;;;;;;21.85;10.00;;;;;;;12.88;100.00;99810.16;4953155;28;20039;-62
2022/09/25 04:57:56;;;;;;;25.10;9.55;;;;;;;12.85;100.00;99813.22;4953293;29;20031;-62
2022/09/25 05:00:23;;;;;;;27.90;10.35;;;;;;;12.84;100.00;99808.88;4952900;28;20518;-62
2022/09/25 05:02:49;;;;;;;24.58;10.18;;;;;;;12.82;100.00;99805.59;4953183;28;20122;-62
2022/09/25 05:05:15;;;;;;;23.90;10.40;;;;;;;12.82;100.00;99805.59;4953141;28;20540;-62
2022/09/25 05:07:51;;;;;;;23.73;10.45;;;;;;;12.81;100.00;99810.13;4953100;28;20036;-62
2022/09/25 05:10:16;;;;;;;25.08;10.65;;;;;;;12.79;100.00;99801.47;4952824;29;20051;-62
2022/09/25 05:12:42;;;;;;;28.15;12.20;;;;;;;12.79;100.00;99814.84;4953175;28;20098;-62
2022/09/25 05:15:09;;;;;;;24.85;10.90;;;;;;;12.80;100.00;99813.00;4952942;28;20241;-62
2022/09/25 05:17:34;;;;;;;26.40;10.38;;;;;;;12.80;100.00;99811.16;4953025;28;20043;-62
2022/09/25 05:20:00;;;;;;;26.17;10.68;;;;;;;12.81;100.00;99820.00;4952938;28;20051;-61
2022/09/25 05:22:25;;;;;;;28.17;11.23;;;;;;;12.80;100.00;99819.16;4951721;28;20043;-62
2022/09/25 05:24:52;;;;;;;29.23;11.32;;;;;;;12.81;100.00;99814.63;4952906;29;20102;-62
2022/09/25 05:27:17;;;;;;;25.90;11.82;;;;;;;12.83;100.00;99812.59;4952029;29;20411;-61
2022/09/25 05:29:43;;;;;;;25.70;9.32;;;;;;;12.84;100.00;99819.56;4952931;28;20089;-62
2022/09/25 05:32:08;;;;;;;26.33;10.57;;;;;;;12.82;100.00;99816.28;4952499;28;20043;-62
2022/09/25 05:34:34;;;;;;;24.77;10.30;;;;;;;12.83;100.00;99815.25;4952974;28;20101;-62
2022/09/25 05:36:59;;;;;;;23.65;9.80;;;;;;;12.82;100.00;99814.44;4952857;28;20035;-63
2022/09/25 05:39:25;;;;;;;27.05;9.68;;;;;;;12.82;100.00;99811.75;4952776;29;20067;-63
2022/09/25 05:41:51;;;;;;;23.80;10.25;;;;;;;12.85;100.00;99815.91;4952487;28;20498;-63
2022/09/25 05:44:16;;;;;;;25.10;10.48;;;;;;;12.79;100.00;99812.16;4952879;28;20129;-61
2022/09/25 05:46:42;;;;;;;26.02;10.32;;;;;;;12.81;100.00;99818.13;4952867;28;20031;-60
2022/09/25 05:49:07;;;;;;;23.63;10.77;;;;;;;12.83;100.00;99809.91;4952908;28;20039;-61
2022/09/25 05:51:33;;;;;;;19.50;9.80;;;;;;;12.86;100.00;99818.38;4951596;29;20098;-56
2022/09/25 05:54:01;;;;;;;19.33;10.23;;;;;;;12.81;100.00;99809.28;4952967;28;20043;-58
2022/09/25 05:56:26;;;;;;;28.90;10.68;;;;;;;12.80;100.00;99815.66;4952736;28;20075;-56
2022/09/25 05:58:54;;;;;;;25.75;11.35;;;;;;;12.79;100.00;99814.03;4951598;29;20153;-59
2022/09/25 06:01:19;;;;;;;;;;;;;;;12.74;100.00;99818.09;4951551;29;20038;-56
2022/09/25 06:03:45;;;;;;;22.13;9.15;;;;;;;12.75;100.00;99822.41;4955259;28;19922;-62
2022/09/25 06:06:11;;;;;;;25.20;9.73;;;;;;;12.76;100.00;99817.91;4956156;28;20114;-62
2022/09/25 06:08:36;;;;;;;22.90;9.05;;;;;;;12.79;100.00;99827.38;4956334;28;20035;-63
2022/09/25 06:11:03;;;;;;;24.08;10.13;;;;;;;12.80;100.00;99829.03;4955943;28;20049;-61
2022/09/25 06:13:34;;;;;;;19.17;8.70;;;;;;;12.83;100.00;99825.94;4956233;28;20071;-63
2022/09/25 06:16:00;;;;;;;15.88;8.23;;;;;;;12.83;100.00;99829.44;4956094;28;20074;-62
2022/09/25 06:18:26;;;;;;;19.15;8.75;;;;;;;12.81;100.00;99828.00;4949856;28;20035;-61
2022/09/25 06:20:59;;;;;;;22.00;9.48;;;;;;;12.78;100.00;99829.22;4955088;28;20121;-61
2022/09/25 06:23:24;;;;;;;19.73;8.70;;;;;;;12.81;100.00;99838.69;4955764;28;20388;-61
2022/09/25 06:25:49;;;;;;;17.88;8.63;;;;;;;12.83;100.00;99833.97;4955631;28;20107;-60
2022/09/25 06:28:15;;;;;;;19.75;8.73;;;;;;;12.79;100.00;99844.25;4955625;28;20349;-60
2022/09/25 06:30:40;;;;;;;19.77;9.30;;;;;;;12.80;100.00;99835.19;4954955;28;20123;-60
2022/09/25 06:33:11;;;;;;;19.77;9.25;;;;;;;12.76;100.00;99833.94;4955646;28;20044;-62
2022/09/25 06:35:44;;;;;;;20.58;9.20;;;;;;;12.75;100.00;99837.63;4955678;28;20077;-62
2022/09/25 06:38:11;;;;;;;23.00;8.82;;;;;;;12.78;100.00;99831.91;4955552;28;20068;-62
2022/09/25 06:40:39;;;;;;;19.58;9.45;;;;;;;12.80;100.00;99835.19;4954853;28;20030;-61
2022/09/25 06:43:06;;;;;;;16.40;8.20;;;;;;;12.83;100.00;99842.00;4955265;28;20109;-61
2022/09/25 06:45:33;;;;;;;21.80;9.60;;;;;;;12.78;100.00;99842.59;4955731;28;20498;-62
2022/09/25 06:48:07;;;;;;;13.33;7.90;;;;;;;12.84;100.00;99843.63;4955417;28;20035;-62
2022/09/25 06:50:46;;;;;;;19.10;9.88;;;;;;;12.83;100.00;99840.13;4954830;28;20453;-61
2022/09/25 06:53:13;;;;;;;20.88;8.15;;;;;;;12.85;100.00;99847.97;4969880;28;20039;-61
2022/09/25 06:55:39;;;;;;;20.80;9.60;;;;;;;12.87;100.00;99851.28;4955400;28;20399;-60
2022/09/25 06:58:07;;;;;;;19.85;8.05;;;;;;;12.87;100.00;99843.25;4955128;28;20046;-61
2022/09/25 07:00:33;;;;;;;;;;;;;;;12.85;100.00;99842.63;4954929;28;20737;-60
2022/09/25 07:05:46;;;;;;;25.40;8.32;;;;;;;12.83;100.00;99839.31;4954986;28;20039;-61
2022/09/25 07:08:15;;;;;;;17.70;8.43;;;;;;;12.86;100.00;99839.75;4954884;28;20050;-61
2022/09/25 07:10:49;;;;;;;17.80;7.50;;;;;;;12.90;100.00;99838.31;4954419;28;20533;-61
2022/09/25 07:13:23;;;;;;;16.05;7.43;;;;;;;12.88;100.00;99842.22;4954808;28;20047;-60
2022/09/25 07:15:55;;;;;;;19.58;8.80;;;;;;;12.91;100.00;99848.00;4953935;28;20066;-60
2022/09/25 07:18:22;;;;;;;15.30;8.07;;;;;;;12.92;100.00;99846.16;4953354;28;20035;-61
2022/09/25 07:20:49;;;;;;;21.50;8.90;;;;;;;12.92;100.00;99849.66;4953924;28;20416;-61
2022/09/25 07:23:16;;;;;;;19.95;8.32;;;;;;;12.98;100.00;99842.69;4954674;28;20685;-59
2022/09/25 07:25:44;;;;;;;20.50;9.65;;;;;;;13.00;100.00;99849.47;4954657;28;20061;-60
2022/09/25 07:28:12;;;;;;;20.20;8.23;;;;;;;13.02;100.00;99851.94;4954499;28;20119;-61
2022/09/25 07:30:39;;;;;;;17.15;8.00;;;;;;;13.04;100.00;99848.06;4968620;28;20111;-61
2022/09/25 07:33:04;;;;;;;19.10;8.45;;;;;;;13.07;100.00;99846.84;4954570;28;20075;-61
2022/09/25 07:35:29;;;;;;;16.45;8.18;;;;;;;13.14;100.00;99849.53;4954707;28;20070;-61
2022/09/25 07:37:56;;;;;;;24.83;9.80;;;;;;;13.13;100.00;99846.06;4954493;28;20390;-61
2022/09/25 07:40:22;;;;;;;14.45;8.10;;;;;;;13.16;100.00;99848.31;4953810;28;20050;-60
2022/09/25 07:42:47;;;;;;;20.77;8.60;;;;;;;13.20;100.00;99838.91;4954259;28;20035;-61
2022/09/25 07:45:12;;;;;;;20.77;9.45;;;;;;;13.14;100.00;99830.81;4954275;28;20039;-61
2022/09/25 07:47:38;;;;;;;17.60;8.85;;;;;;;13.24;100.00;99837.50;4954292;28;20043;-59
2022/09/25 07:50:03;;;;;;;16.17;7.80;;;;;;;13.29;100.00;99840.38;4953416;28;20047;-59
2022/09/25 07:52:29;;;;;;;19.95;9.82;;;;;;;13.25;100.00;99841.81;4953927;29;20043;-55
2022/09/25 07:54:54;;;;;;;21.73;9.02;;;;;;;13.35;100.00;99840.59;4954347;28;20050;-55
2022/09/25 07:57:20;;;;;;;20.13;9.18;;;;;;;13.36;100.00;99840.38;4954270;28;20043;-58
2022/09/25 07:59:46;;;;;;;18.58;7.85;;;;;;;13.34;100.00;99839.78;4954422;29;20046;-59
2022/09/25 08:02:12;;;;;;;20.50;8.05;;;;;;;13.34;100.00;99836.28;4953925;28;20047;-58
2022/09/25 08:04:37;;;;;;;22.20;9.45;;;;;;;13.36;100.00;99839.56;4954203;28;20043;-57
2022/09/25 08:07:03;;;;;;;21.83;9.50;;;;;;;13.30;100.00;99834.03;4954011;29;20035;-60
2022/09/25 08:09:29;;;;;;;24.58;9.13;;;;;;;13.34;100.00;99838.94;4953985;28;20129;-57
2022/09/25 08:11:54;;;;;;;18.98;8.77;;;;;;;13.27;100.00;99833.59;4953789;29;20058;-60
2022/09/25 08:14:21;;;;;;;23.10;9.45;;;;;;;13.32;100.00;99839.16;4953836;28;20379;-60
2022/09/25 08:16:47;;;;;;;20.80;10.20;;;;;;;13.38;100.00;99832.19;4953923;28;20065;-60
2022/09/25 08:19:16;;;;;;;21.52;8.93;;;;;;;13.49;100.00;99835.06;4954136;29;20027;-59
2022/09/25 08:21:42;;;;;;;20.98;9.15;;;;;;;13.57;100.00;99832.22;4953571;28;20047;-60
2022/09/25 08:24:08;;;;;;;28.40;10.85;;;;;;;13.65;100.00;99841.09;4953746;28;20076;-60
2022/09/25 08:26:33;;;;;;;18.52;9.57;;;;;;;13.73;100.00;99835.53;4953681;28;20094;-61
2022/09/25 08:28:59;;;;;;;23.92;9.63;;;;;;;13.75;100.00;99836.97;4953644;28;20062;-60
2022/09/25 08:31:24;;;;;;;18.27;9.27;;;;;;;13.83;100.00;99833.31;4953446;28;20053;-59
2022/09/25 08:33:50;;;;;;;24.80;10.25;;;;;;;13.91;100.00;99845.66;4953735;28;20047;-61
2022/09/25 08:36:16;;;;;;;28.67;11.85;;;;;;;13.95;100.00;99838.84;4953466;29;20047;-60
2022/09/25 08:38:42;;;;;;;26.98;11.00;;;;;;;13.98;100.00;99839.28;4953507;28;20032;-60
2022/09/25 08:41:22;;;;;;;23.13;11.02;;;;;;;14.05;100.00;99844.66;4953235;29;20410;-61
2022/09/25 08:43:57;;;;;;;24.80;11.70;;;;;;;14.08;100.00;99844.22;4952190;29;20035;-61
2022/09/25 08:49:23;;;;;;;27.70;12.18;;;;;;;14.09;100.00;99845.91;4953361;28;20051;-61
2022/09/25 08:51:52;;;;;;;21.92;10.32;;;;;;;14.14;100.00;99843.41;4953246;28;20043;-61
2022/09/25 08:54:30;;;;;;;27.83;11.48;;;;;;;14.12;100.00;99845.47;4953200;28;20133;-62
2022/09/25 08:57:21;;;;;;;32.88;10.73;;;;;;;14.13;100.00;99847.09;4953351;28;20043;-62
2022/09/25 08:59:54;;;;;;;27.75;10.77;;;;;;;14.12;100.00;99840.94;4943048;29;20055;-62
2022/09/25 09:02:23;;;;;;;29.13;11.45;;;;;;;14.17;100.00;99836.81;4953250;28;20035;-61
2022/09/25 09:04:52;;;;;;;25.90;11.65;;;;;;;14.19;100.00;99846.28;4953395;28;20085;-59
2022/09/25 09:07:30;;;;;;;23.75;10.63;;;;;;;14.26;100.00;99838.25;4952206;29;20039;-61
2022/09/25 09:10:01;;;;;;;27.75;12.52;;;;;;;14.36;100.00;99839.50;4953238;28;20046;-59
2022/09/25 09:12:36;;;;;;;27.67;11.68;;;;;;;14.46;100.00;99830.19;4952983;28;20461;-61
2022/09/25 09:15:29;;;;;;;23.15;10.35;;;;;;;14.54;100.00;99832.69;4953087;28;20035;-62
2022/09/25 09:17:58;;;;;;;27.38;11.80;;;;;;;14.53;100.00;99845.25;4945320;28;20046;-61
2022/09/25 09:20:36;;;;;;;23.35;10.60;;;;;;;14.52;100.00;99842.78;4952877;28;20039;-60
2022/09/25 09:23:03;;;;;;;20.40;8.85;;;;;;;14.51;99.42;99855.38;4953316;28;20035;-62
2022/09/25 09:25:49;;;;;;;22.55;9.73;;;;;;;14.50;100.00;99847.53;4953357;28;20404;-61
2022/09/25 09:28:31;;;;;;;22.45;8.68;;;;;;;14.40;100.00;99854.09;4953253;28;20119;-61
2022/09/25 09:31:17;;;;;;;19.45;8.93;;;;;;;14.46;100.00;99859.66;4953047;28;20050;-64
2022/09/25 09:34:16;;;;;;;20.92;10.07;;;;;;;14.47;100.00;99853.31;4953149;28;20046;-63
2022/09/25 09:36:56;;;;;;;19.80;9.95;;;;;;;14.44;100.00;99845.66;4953494;28;20153;-62
2022/09/25 09:39:32;;;;;;;16.55;9.13;;;;;;;14.57;100.00;99856.41;4956739;28;20427;-63
2022/09/25 09:42:09;;;;;;;21.60;9.30;;;;;;;14.66;100.00;99841.72;4956499;28;20154;-63
2022/09/25 09:44:50;;;;;;;18.88;8.98;;;;;;;14.99;100.00;99841.63;4956907;28;20075;-62
2022/09/25 09:47:35;;;;;;;23.27;9.43;;;;;;;15.60;97.27;99835.78;4957086;28;20042;-62
2022/09/25 09:50:15;;;;;;;25.30;9.85;;;;;;;16.36;93.82;99831.31;4956406;28;20036;-62
2022/09/25 09:52:43;;;;;;;16.50;7.70;;;;;;;17.29;96.05;99833.84;4956696;28;20051;-61
2022/09/25 09:55:23;;;;;;;19.08;7.25;;;;;;;17.51;87.28;99835.00;4956463;28;20107;-63
2022/09/25 09:57:55;;;;;;;18.10;7.97;;;;;;;17.80;82.50;99832.53;4956450;28;20054;-59
2022/09/25 10:00:22;;;;;;;16.77;6.85;;;;;;;18.21;80.59;99836.25;4956200;28;20039;-62
2022/09/25 10:02:58;;;;;;;15.98;6.85;;;;;;;18.77;79.17;99837.56;4955172;28;20049;-60
2022/09/25 10:05:32;;;;;;;14.45;6.78;;;;;;;19.21;76.20;99828.78;4956317;28;20075;-57
2022/09/25 10:07:58;;;;;;;15.00;5.90;;;;;;;19.73;73.34;99836.00;4954976;28;20057;-60
2022/09/25 10:10:41;;;;;;;9.65;5.65;;;;;;;19.78;70.73;99827.97;4955952;28;20514;-60
2022/09/25 10:13:31;;;;;;;11.93;5.97;;;;;;;19.94;72.97;99824.47;4956228;28;20396;-60
2022/09/25 10:16:03;;;;;;;12.13;5.43;;;;;;;20.18;69.55;99832.44;4946993;28;20118;-61
2022/09/25 10:18:39;;;;;;;12.40;5.63;;;;;;;19.79;70.19;99832.31;4955901;28;20106;-61
2022/09/25 10:21:12;;;;;;;12.20;6.15;;;;;;;19.19;72.45;99824.69;4955738;28;20054;-62
2022/09/25 10:23:47;;;;;;;10.35;5.40;;;;;;;18.82;74.09;99824.19;4956108;28;20478;-62
2022/09/25 10:26:35;;;;;;;9.57;5.15;;;;;;;18.39;75.89;99830.75;4955700;28;20047;-62
2022/09/25 10:29:21;;;;;;;7.75;4.40;;;;;;;17.90;79.46;99819.31;4955849;28;20098;-62
2022/09/25 10:31:47;;;;;;;7.47;4.47;;;;;;;17.33;82.76;99829.63;4937356;29;20426;-61
2022/09/25 10:34:12;;;;;;;7.53;4.50;;;;;;;16.96;85.70;99829.69;4954451;28;20055;-61
2022/09/25 10:36:39;;;;;;;8.70;4.10;;;;;;;16.40;89.27;99830.66;4955835;28;20043;-62
2022/09/25 10:39:24;;;;;;;8.00;4.68;;;;;;;16.21;91.02;99818.22;4955774;28;20118;-61
2022/09/25 10:41:50;;;;;;;6.70;4.28;;;;;;;15.95;92.00;99820.09;4955443;28;20122;-62
2022/09/25 10:44:32;;;;;;;6.47;3.58;;;;;;;15.53;94.06;99823.47;4955526;28;20047;-62
2022/09/25 10:50:13;;;;;;;7.50;3.72;;;;;;;15.51;96.26;99833.56;4954290;28;20043;-61
2022/09/25 10:52:50;;;;;;;7.85;4.40;;;;;;;15.33;97.89;99824.38;4954427;28;20054;-61
2022/09/25 10:55:30;;;;;;;9.57;3.80;;;;;;;15.31;99.13;99829.13;4955699;29;20054;-61
2022/09/25 10:58:18;;;;;;;7.75;3.80;;;;;;;15.20;100.00;99836.00;4955500;28;20061;-61
2022/09/25 11:00:50;;;;;;;6.30;4.10;;;;;;;15.03;100.00;99834.00;4955193;28;20494;-60
2022/09/25 11:03:21;;;;;;;7.65;3.60;;;;;;;14.97;100.00;99833.00;4955422;28;20094;-61
2022/09/25 11:05:54;;;;;;;6.50;3.90;;;;;;;14.97;100.00;99832.16;4955195;28;20487;-61
2022/09/25 11:08:23;;;;;;;12.80;4.20;;;;;;;14.64;100.00;99836.59;4955207;28;20070;-59
2022/09/25 11:10:57;;;;;;;9.00;4.45;;;;;;;14.77;100.00;99842.94;4954786;28;20055;-61
2022/09/25 11:13:27;;;;;;;10.20;5.20;;;;;;;14.58;100.00;99845.47;4955114;28;20046;-61
2022/09/25 11:16:00;;;;;;;9.00;5.20;;;;;;;14.58;100.00;99845.47;4954770;28;20039;-62
2022/09/25 11:19:03;;;;;;;8.48;4.68;;;;;;;14.59;100.00;99851.66;4954962;28;20042;-61
2022/09/25 11:21:46;;;;;;;10.93;5.70;;;;;;;14.49;100.00;99848.59;4954621;28;20490;-61
2022/09/25 11:24:26;;;;;;;8.82;4.45;;;;;;;14.45;100.00;99855.34;4954778;28;20075;-61
2022/09/25 11:27:00;;;;;;;7.60;4.55;;;;;;;14.36;100.00;99855.56;4955003;28;20062;-58
2022/09/25 11:29:48;;;;;;;12.00;4.85;;;;;;;14.28;100.00;99850.44;4954830;29;20094;-61
2022/09/25 11:32:34;;;;;;;10.75;4.78;;;;;;;14.26;100.00;99851.66;4954592;28;20043;-60
2022/09/25 11:35:06;;;;;;;11.13;4.25;;;;;;;14.23;100.00;99841.34;4954569;29;20039;-61
2022/09/25 11:37:43;;;;;;;10.27;5.10;;;;;;;14.19;100.00;99843.63;4954734;28;20197;-61
2022/09/25 11:43:24;;;;;;;9.88;5.03;;;;;;;14.07;100.00;99832.69;4954665;29;20043;-56
2022/09/25 11:45:58;;;;;;;13.77;6.45;;;;;;;14.07;100.00;99838.03;4954375;28;20046;-62
2022/09/25 11:48:28;;;;;;;11.48;5.88;;;;;;;14.11;100.00;99833.94;4954392;28;20537;-61
2022/09/25 11:51:15;;;;;;;14.90;5.85;;;;;;;14.16;100.00;99829.81;4954084;28;20043;-62
2022/09/25 11:54:06;;;;;;;15.95;6.85;;;;;;;14.11;100.00;99841.16;4954367;28;20035;-63